createdAt,value
2018-12-17T00:03:36.835Z,19.23
2018-12-17T00:08:46.306Z,18.90
2018-12-17T00:13:55.821Z,11.67
2018-12-17T00:19:05.230Z,19.30
2018-12-17T00:24:14.553Z,22.87
2018-12-17T00:29:24.093Z,24.90
2018-12-17T00:34:33.518Z,21.50
2018-12-17T00:39:42.915Z,14.23
2018-12-17T00:44:52.293Z,24.60
2018-12-17T00:50:01.824Z,18.40
2018-12-17T00:55:11.392Z,22.27
2018-12-17T01:00:21.254Z,17.37
2018-12-17T01:05:30.659Z,19.73
2018-12-17T01:10:40.102Z,21.57
2018-12-17T01:15:49.500Z,16.27
2018-12-17T01:20:58.837Z,17.63
2018-12-17T01:26:08.901Z,17.20
2018-12-17T01:31:18.353Z,16.23
2018-12-17T01:36:27.852Z,14.03
2018-12-17T01:41:37.215Z,17.17
2018-12-17T01:46:46.564Z,17.07
2018-12-17T01:51:55.977Z,14.23
2018-12-17T01:57:05.637Z,15.47
2018-12-17T02:02:15.269Z,15.13
2018-12-17T02:07:24.630Z,16.17
2018-12-17T02:12:35.841Z,13.97
2018-12-17T02:17:45.401Z,15.40
2018-12-17T02:22:54.768Z,16.37
2018-12-17T02:28:04.130Z,17.47
2018-12-17T02:33:13.596Z,18.10
2018-12-17T02:38:22.985Z,15.97
2018-12-17T02:43:32.352Z,18.03
2018-12-17T02:48:42.465Z,20.73
2018-12-17T02:53:52.030Z,16.77
2018-12-17T02:59:01.426Z,16.57
2018-12-17T03:04:10.791Z,17.00
2018-12-17T03:09:20.134Z,15.87
2018-12-17T03:14:29.614Z,13.53
2018-12-17T03:19:39.014Z,13.33
2018-12-17T03:24:48.581Z,16.57
2018-12-17T03:29:58.026Z,14.47
2018-12-17T03:35:07.473Z,15.37
2018-12-17T03:40:16.883Z,13.97
2018-12-17T03:45:26.289Z,14.33
2018-12-17T03:50:35.614Z,14.03
2018-12-17T03:55:44.993Z,8.43
2018-12-17T04:00:54.322Z,12.03
2018-12-17T04:06:03.655Z,11.77
2018-12-17T04:11:12.983Z,8.70
2018-12-17T04:16:22.335Z,8.87
2018-12-17T04:21:31.854Z,8.83
2018-12-17T04:26:41.781Z,10.40
2018-12-17T04:31:51.058Z,8.03
2018-12-17T04:37:00.457Z,12.47
2018-12-17T04:42:09.846Z,10.53
2018-12-17T04:47:19.260Z,8.77
2018-12-17T04:52:28.677Z,9.53
2018-12-17T04:57:38.483Z,8.17
2018-12-17T05:02:48.001Z,8.07
2018-12-17T05:07:57.338Z,8.00
2018-12-17T05:13:06.865Z,7.97
2018-12-17T05:18:16.277Z,10.30
2018-12-17T05:23:25.726Z,8.63
2018-12-17T05:28:35.096Z,8.47
2018-12-17T05:33:44.458Z,16.83
2018-12-17T05:38:54.014Z,8.27
2018-12-17T05:44:03.351Z,15.50
2018-12-17T05:49:12.800Z,10.23
2018-12-17T05:54:22.309Z,12.80
2018-12-17T05:59:31.674Z,13.80
2018-12-17T06:04:41.122Z,14.33
2018-12-17T06:09:50.525Z,10.07
2018-12-17T06:15:00.026Z,12.27
2018-12-17T06:20:09.621Z,7.67
2018-12-17T06:25:19.155Z,10.23
2018-12-17T06:30:28.519Z,9.83
2018-12-17T06:35:37.902Z,12.20
2018-12-17T06:40:47.235Z,14.93
2018-12-17T06:45:56.597Z,9.07
2018-12-17T06:51:06.074Z,12.63
2018-12-17T06:56:15.638Z,13.37
2018-12-17T07:01:25.122Z,13.07
2018-12-17T07:06:34.748Z,18.60
2018-12-17T07:11:44.101Z,14.07
2018-12-17T07:16:53.599Z,19.83
2018-12-17T07:22:02.977Z,16.43
2018-12-17T07:27:12.464Z,18.33
2018-12-17T07:32:22.021Z,17.53
2018-12-17T07:37:31.578Z,23.13
2018-12-17T07:42:41.061Z,20.83
2018-12-17T07:47:50.450Z,19.43
2018-12-17T07:52:59.774Z,22.70
2018-12-17T07:58:09.164Z,22.07
2018-12-17T08:03:18.709Z,28.03
2018-12-17T08:08:35.175Z,20.67
2018-12-17T08:13:39.610Z,17.93
2018-12-17T08:18:49.824Z,22.17
2018-12-17T08:23:59.586Z,16.23
2018-12-17T08:29:09.031Z,19.20
2018-12-17T08:34:18.977Z,18.60
2018-12-17T08:39:28.466Z,20.30
2018-12-17T08:44:38.186Z,18.70
2018-12-17T08:49:47.636Z,14.60
2018-12-17T08:54:57.091Z,18.63
2018-12-17T09:00:10.982Z,15.50
2018-12-17T09:05:19.209Z,16.20
2018-12-17T09:10:28.698Z,14.93
2018-12-17T09:15:38.070Z,12.43
2018-12-17T09:20:47.475Z,13.77
2018-12-17T09:25:56.830Z,14.77
2018-12-17T09:31:06.437Z,12.33
2018-12-17T09:36:15.793Z,17.50
2018-12-17T09:41:25.162Z,13.60
2018-12-17T09:46:34.665Z,11.90
2018-12-17T09:51:44.161Z,12.97
2018-12-17T09:56:53.502Z,11.07
2018-12-17T10:02:02.945Z,13.13
2018-12-17T10:07:12.513Z,14.00
2018-12-17T10:12:21.850Z,12.50
2018-12-17T10:17:31.289Z,15.57
2018-12-17T10:22:41.678Z,17.23
2018-12-17T10:27:51.229Z,9.90
2018-12-17T10:33:00.625Z,13.70
2018-12-17T10:38:10.052Z,15.47
2018-12-17T10:43:19.427Z,15.20
2018-12-17T10:48:28.894Z,12.97
2018-12-17T10:53:38.441Z,16.27
2018-12-17T10:58:47.818Z,20.27
2018-12-17T11:04:04.289Z,19.70
2018-12-17T11:09:13.743Z,17.83
2018-12-17T11:14:23.358Z,16.53
2018-12-17T11:19:32.830Z,15.70
2018-12-17T11:24:42.343Z,21.73
2018-12-17T11:29:51.722Z,20.50
2018-12-17T11:35:01.374Z,17.57
2018-12-17T11:40:11.006Z,11.83
2018-12-17T11:45:20.529Z,9.10
2018-12-17T11:50:30.002Z,13.80
2018-12-17T11:55:39.521Z,12.63
2018-12-17T12:00:54.224Z,14.70
2018-12-17T12:06:04.094Z,14.60
2018-12-17T12:11:13.595Z,13.67
2018-12-17T12:16:23.118Z,18.03
2018-12-17T12:21:32.494Z,11.57
2018-12-17T12:26:42.149Z,9.47
2018-12-17T12:31:51.740Z,9.73
2018-12-17T12:37:01.394Z,11.47
2018-12-17T12:42:10.777Z,11.70
2018-12-17T12:47:20.273Z,11.97
2018-12-17T12:52:29.665Z,13.40
2018-12-17T12:57:39.066Z,17.50
2018-12-17T13:02:48.699Z,15.53
2018-12-17T13:07:58.285Z,13.43
2018-12-17T13:13:07.824Z,12.00
2018-12-17T13:18:17.408Z,9.77
2018-12-17T13:23:27.004Z,15.90
2018-12-17T13:28:36.930Z,6.97
2018-12-17T13:33:46.501Z,6.23
2018-12-17T13:38:56.078Z,7.77
2018-12-17T13:44:05.609Z,16.43
2018-12-17T13:49:15.129Z,8.60
2018-12-17T13:54:24.710Z,9.20
2018-12-17T13:59:34.098Z,7.57
2018-12-17T14:04:43.482Z,6.90
2018-12-17T14:09:58.262Z,10.83
2018-12-17T14:15:07.790Z,7.43
2018-12-17T14:20:22.662Z,11.60
2018-12-17T14:25:32.047Z,9.53
2018-12-17T14:30:41.547Z,8.23
2018-12-17T14:35:56.637Z,11.20
2018-12-17T14:41:06.326Z,11.03
2018-12-17T14:46:15.642Z,9.00
2018-12-17T14:51:25.005Z,11.30
2018-12-17T14:56:34.407Z,11.87
2018-12-17T15:01:43.818Z,8.83
2018-12-17T15:06:53.358Z,17.27
2018-12-17T15:12:02.878Z,8.30
2018-12-17T15:17:12.215Z,11.00
2018-12-17T15:22:21.742Z,6.73
2018-12-17T15:27:31.371Z,12.07
2018-12-17T15:32:40.933Z,12.23
2018-12-17T15:37:50.250Z,14.37
2018-12-17T15:42:59.625Z,12.50
2018-12-17T15:48:08.965Z,11.57
2018-12-17T15:53:18.742Z,9.00
2018-12-17T15:58:28.106Z,9.97
2018-12-17T16:03:37.638Z,10.63
2018-12-17T16:08:47.078Z,13.77
2018-12-17T16:13:56.504Z,9.83
2018-12-17T16:19:05.978Z,12.33
2018-12-17T16:24:15.503Z,17.03
2018-12-17T16:29:24.926Z,9.17
2018-12-17T16:34:34.700Z,8.00
2018-12-17T16:39:44.107Z,11.40
2018-12-17T16:44:53.453Z,15.67
2018-12-17T16:50:03.938Z,12.33
2018-12-17T16:55:13.982Z,12.53
2018-12-17T17:00:23.581Z,16.57
2018-12-17T17:05:33.144Z,13.33
2018-12-17T17:10:42.493Z,6.87
2018-12-17T17:15:53.157Z,14.80
2018-12-17T17:21:02.501Z,12.53
2018-12-17T17:26:11.902Z,13.50
2018-12-17T17:31:21.242Z,9.80
2018-12-17T17:36:30.778Z,9.03
2018-12-17T17:41:40.360Z,13.80
2018-12-17T17:46:50.025Z,15.73
2018-12-17T17:51:59.626Z,15.20
2018-12-17T17:57:09.081Z,9.97
2018-12-17T18:02:18.951Z,20.83
2018-12-17T18:07:28.606Z,22.23
2018-12-17T18:12:38.065Z,21.83
2018-12-17T18:17:47.478Z,22.93
2018-12-17T18:22:56.886Z,17.83
2018-12-17T18:28:06.285Z,13.80
2018-12-17T18:33:15.724Z,14.57
2018-12-17T18:38:25.161Z,20.63
2018-12-17T18:43:34.634Z,19.83
2018-12-17T18:48:44.211Z,17.77
2018-12-17T18:53:53.927Z,19.07
2018-12-17T18:59:03.604Z,23.50
2018-12-17T19:04:12.906Z,17.67
2018-12-17T19:09:22.302Z,20.60
2018-12-17T19:14:31.760Z,17.87
2018-12-17T19:19:41.246Z,16.60
2018-12-17T19:24:50.773Z,21.67
2018-12-17T19:30:00.255Z,20.20
2018-12-17T19:35:09.841Z,20.37
2018-12-17T19:40:19.426Z,22.37
2018-12-17T19:45:28.723Z,17.87
2018-12-17T19:50:38.301Z,16.13
2018-12-17T19:55:47.880Z,23.17
2018-12-17T20:00:57.458Z,20.53
2018-12-17T20:06:07.022Z,23.73
2018-12-17T20:11:16.538Z,21.47
2018-12-17T20:16:26.163Z,20.20
2018-12-17T20:21:35.542Z,26.37
2018-12-17T20:26:45.097Z,16.00
2018-12-17T20:31:54.722Z,15.80
2018-12-17T20:37:04.145Z,21.10
2018-12-17T20:42:13.790Z,20.40
2018-12-17T20:47:23.151Z,18.43
2018-12-17T20:52:32.633Z,19.70
2018-12-17T20:57:41.988Z,23.80
2018-12-17T21:02:51.599Z,17.60
2018-12-17T21:08:01.234Z,20.70
2018-12-17T21:13:10.646Z,26.93
2018-12-17T21:18:20.041Z,23.63
2018-12-17T21:23:30.154Z,17.27
2018-12-17T21:28:39.596Z,19.00
2018-12-17T21:33:49.030Z,20.00
2018-12-17T21:38:58.392Z,20.97
2018-12-17T21:44:07.767Z,14.27
2018-12-17T21:49:17.181Z,16.40
2018-12-17T21:54:26.736Z,17.90
2018-12-17T21:59:36.248Z,21.90
2018-12-17T22:04:45.590Z,18.70
2018-12-17T22:09:55.021Z,20.57
2018-12-17T22:15:05.324Z,19.07
2018-12-17T22:20:14.769Z,13.33
2018-12-17T22:25:24.105Z,15.10
2018-12-17T22:30:33.452Z,22.77
2018-12-17T22:35:42.905Z,22.37
2018-12-17T22:40:52.369Z,18.47
2018-12-17T22:46:02.361Z,10.00
2018-12-17T22:51:11.954Z,12.77
2018-12-17T22:56:21.473Z,18.37
2018-12-17T23:01:31.030Z,15.07
2018-12-17T23:06:40.418Z,18.40
2018-12-17T23:12:06.722Z,10.93
2018-12-17T23:17:27.405Z,15.77
2018-12-17T23:22:38.969Z,17.90
2018-12-17T23:27:51.014Z,17.03
2018-12-17T23:33:00.462Z,15.40
2018-12-17T23:38:09.842Z,15.40
2018-12-17T23:43:19.402Z,16.80
2018-12-17T23:48:28.915Z,15.00
2018-12-17T23:53:38.441Z,14.80
2018-12-17T23:58:47.842Z,14.07
